Terminal Aerodrome Forecast
Issued by NWS

Home | Current Version | Previous Version | Graphics & Text | Print | Product List | Glossary On
Versions: 1 2 3 4 5 6 7 8 9 10 11 12 13 14 15 16 17 18 19 20 21 22
000
FTUS43 KGRB 282300
TAFAUW
TAF
KAUW 282337Z 2900/2924 13008KT P6SM SCT010 OVC150 WS014/17030KT
      TEMPO 2900/2903 4SM BR BKN010
     FM290300 13006KT 6SM BR SCT022 OVC035 WS014/19030KT
     FM290500 12003KT 3SM -FZDZ BR BKN009 OVC018
     FM290700 VRB03KT 2SM -FZDZ BR OVC005
     FM290900 31007KT 2SM -SN BR BKN006 OVC015
     FM291300 32008G15KT 5SM -SN BKN009 OVC018
     FM291600 31017G25KT P6SM -SN BKN015 BKN030
      AMD LTD TO CLD VIS AND WIND 2903/2911=

USA.gov is the U.S. government's official web portal to all federal, state and local government web resources and services.